sensor_id;sensor_type;location;lat;lon;timestamp;temperature;humidity
31819;DHT22;18384;48.860;9.188;2023-02-01T00:01:45;6.00;99.90
31819;DHT22;18384;48.860;9.188;2023-02-01T00:04:11;6.00;99.90
31819;DHT22;18384;48.860;9.188;2023-02-01T00:06:37;6.00;99.90
31819;DHT22;18384;48.860;9.188;2023-02-01T00:09:03;6.10;99.90
31819;DHT22;18384;48.860;9.188;2023-02-01T00:11:30;6.10;99.90
31819;DHT22;18384;48.860;9.188;2023-02-01T00:13:57;6.20;99.90
31819;DHT22;18384;48.860;9.188;2023-02-01T00:16:26;6.20;99.90
31819;DHT22;18384;48.860;9.188;2023-02-01T00:19:10;6.20;99.90
31819;DHT22;18384;48.860;9.188;2023-02-01T00:21:38;6.10;99.90
31819;DHT22;18384;48.860;9.188;2023-02-01T00:24:04;6.10;99.90
31819;DHT22;18384;48.860;9.188;2023-02-01T00:26:42;6.10;99.90
31819;DHT22;18384;48.860;9.188;2023-02-01T00:29:17;6.10;99.90
31819;DHT22;18384;48.860;9.188;2023-02-01T00:31:44;6.00;99.90
31819;DHT22;18384;48.860;9.188;2023-02-01T00:34:11;5.90;99.90
31819;DHT22;18384;48.860;9.188;2023-02-01T00:36:39;5.90;99.90
31819;DHT22;18384;48.860;9.188;2023-02-01T00:39:05;5.80;99.90
31819;DHT22;18384;48.860;9.188;2023-02-01T00:41:31;5.80;99.90
31819;DHT22;18384;48.860;9.188;2023-02-01T00:43:57;5.90;99.90
31819;DHT22;18384;48.860;9.188;2023-02-01T00:46:24;5.70;99.90
31819;DHT22;18384;48.860;9.188;2023-02-01T00:48:50;5.80;99.90
31819;DHT22;18384;48.860;9.188;2023-02-01T00:51:19;5.80;99.90
31819;DHT22;18384;48.860;9.188;2023-02-01T00:53:47;5.80;99.90
31819;DHT22;18384;48.860;9.188;2023-02-01T00:56:13;5.70;99.90
31819;DHT22;18384;48.860;9.188;2023-02-01T00:58:39;5.70;99.90
31819;DHT22;18384;48.860;9.188;2023-02-01T01:01:11;5.60;99.90
31819;DHT22;18384;48.860;9.188;2023-02-01T01:03:48;5.40;99.90
31819;DHT22;18384;48.860;9.188;2023-02-01T01:06:33;5.30;99.90
31819;DHT22;18384;48.860;9.188;2023-02-01T01:09:01;5.30;99.90
31819;DHT22;18384;48.860;9.188;2023-02-01T01:11:32;5.20;99.90
31819;DHT22;18384;48.860;9.188;2023-02-01T01:14:00;5.20;99.90
31819;DHT22;18384;48.860;9.188;2023-02-01T01:16:28;5.20;99.90
31819;DHT22;18384;48.860;9.188;2023-02-01T01:18:55;5.30;99.90
31819;DHT22;18384;48.860;9.188;2023-02-01T01:21:22;5.30;99.90
31819;DHT22;18384;48.860;9.188;2023-02-01T01:23:48;5.40;99.90
31819;DHT22;18384;48.860;9.188;2023-02-01T01:26:19;5.30;99.90
31819;DHT22;18384;48.860;9.188;2023-02-01T01:28:48;5.50;99.90
31819;DHT22;18384;48.860;9.188;2023-02-01T01:31:16;5.50;99.90
31819;DHT22;18384;48.860;9.188;2023-02-01T01:33:43;5.60;99.90
31819;DHT22;18384;48.860;9.188;2023-02-01T01:36:10;5.70;99.90
31819;DHT22;18384;48.860;9.188;2023-02-01T01:38:37;5.60;99.90
31819;DHT22;18384;48.860;9.188;2023-02-01T01:41:06;5.60;99.90
31819;DHT22;18384;48.860;9.188;2023-02-01T01:43:53;5.70;99.90
31819;DHT22;18384;48.860;9.188;2023-02-01T01:46:24;5.70;99.90
31819;DHT22;18384;48.860;9.188;2023-02-01T01:49:01;5.70;99.90
31819;DHT22;18384;48.860;9.188;2023-02-01T01:51:54;5.70;99.90
31819;DHT22;18384;48.860;9.188;2023-02-01T01:54:37;5.80;99.90
31819;DHT22;18384;48.860;9.188;2023-02-01T01:57:14;5.80;99.90
31819;DHT22;18384;48.860;9.188;2023-02-01T01:59:55;5.80;99.90
31819;DHT22;18384;48.860;9.188;2023-02-01T02:02:28;5.90;99.90
31819;DHT22;18384;48.860;9.188;2023-02-01T02:04:54;5.90;99.90
31819;DHT22;18384;48.860;9.188;2023-02-01T02:07:25;5.80;99.90
31819;DHT22;18384;48.860;9.188;2023-02-01T02:09:54;5.90;99.90
31819;DHT22;18384;48.860;9.188;2023-02-01T02:12:21;5.80;99.90
31819;DHT22;18384;48.860;9.188;2023-02-01T02:14:47;5.80;99.90
31819;DHT22;18384;48.860;9.188;2023-02-01T02:17:36;5.90;99.90
31819;DHT22;18384;48.860;9.188;2023-02-01T02:21:15;5.90;99.90
31819;DHT22;18384;48.860;9.188;2023-02-01T02:30:23;6.10;99.90
31819;DHT22;18384;48.860;9.188;2023-02-01T02:33:46;6.10;99.90
31819;DHT22;18384;48.860;9.188;2023-02-01T02:36:43;6.10;99.90
31819;DHT22;18384;48.860;9.188;2023-02-01T02:39:39;6.10;99.90
31819;DHT22;18384;48.860;9.188;2023-02-01T02:45:49;6.10;99.90
31819;DHT22;18384;48.860;9.188;2023-02-01T02:48:57;6.10;99.90
31819;DHT22;18384;48.860;9.188;2023-02-01T02:54:59;6.10;99.90
31819;DHT22;18384;48.860;9.188;2023-02-01T02:57:34;6.10;99.90
31819;DHT22;18384;48.860;9.188;2023-02-01T03:00:27;6.10;99.90
31819;DHT22;18384;48.860;9.188;2023-02-01T03:03:14;6.10;99.90
31819;DHT22;18384;48.860;9.188;2023-02-01T03:05:59;6.20;99.90
31819;DHT22;18384;48.860;9.188;2023-02-01T03:08:28;6.10;99.90
31819;DHT22;18384;48.860;9.188;2023-02-01T03:11:04;6.10;99.90
31819;DHT22;18384;48.860;9.188;2023-02-01T03:13:58;6.10;99.90
31819;DHT22;18384;48.860;9.188;2023-02-01T03:16:36;6.00;99.90
31819;DHT22;18384;48.860;9.188;2023-02-01T03:19:14;6.10;99.90
31819;DHT22;18384;48.860;9.188;2023-02-01T03:21:48;6.10;99.90
31819;DHT22;18384;48.860;9.188;2023-02-01T03:24:37;6.10;99.90
31819;DHT22;18384;48.860;9.188;2023-02-01T03:27:18;6.20;99.90
31819;DHT22;18384;48.860;9.188;2023-02-01T03:29:55;6.10;99.90
31819;DHT22;18384;48.860;9.188;2023-02-01T03:32:40;6.10;99.90
31819;DHT22;18384;48.860;9.188;2023-02-01T03:35:37;5.90;99.90
31819;DHT22;18384;48.860;9.188;2023-02-01T03:42:41;6.10;99.90
31819;DHT22;18384;48.860;9.188;2023-02-01T03:45:17;6.20;99.90
31819;DHT22;18384;48.860;9.188;2023-02-01T03:47:49;6.20;99.90
31819;DHT22;18384;48.860;9.188;2023-02-01T03:50:19;6.30;99.90
31819;DHT22;18384;48.860;9.188;2023-02-01T03:53:01;6.30;99.90
31819;DHT22;18384;48.860;9.188;2023-02-01T03:55:31;6.40;99.90
31819;DHT22;18384;48.860;9.188;2023-02-01T03:58:13;6.40;99.90
31819;DHT22;18384;48.860;9.188;2023-02-01T04:01:06;6.40;99.90
31819;DHT22;18384;48.860;9.188;2023-02-01T04:03:32;6.30;99.90
31819;DHT22;18384;48.860;9.188;2023-02-01T04:05:58;6.30;99.90
31819;DHT22;18384;48.860;9.188;2023-02-01T04:08:25;6.20;99.90
31819;DHT22;18384;48.860;9.188;2023-02-01T04:10:51;6.20;99.90
31819;DHT22;18384;48.860;9.188;2023-02-01T04:13:17;6.20;99.90
31819;DHT22;18384;48.860;9.188;2023-02-01T04:15:43;6.20;99.90
31819;DHT22;18384;48.860;9.188;2023-02-01T04:18:11;6.20;99.90
31819;DHT22;18384;48.860;9.188;2023-02-01T04:20:37;6.10;99.90
31819;DHT22;18384;48.860;9.188;2023-02-01T04:23:03;5.80;99.90
31819;DHT22;18384;48.860;9.188;2023-02-01T04:25:30;5.60;99.90
31819;DHT22;18384;48.860;9.188;2023-02-01T04:27:56;5.60;99.90
31819;DHT22;18384;48.860;9.188;2023-02-01T04:30:22;5.50;99.90
31819;DHT22;18384;48.860;9.188;2023-02-01T04:32:49;5.60;99.90
31819;DHT22;18384;48.860;9.188;2023-02-01T04:35:15;5.60;99.90
31819;DHT22;18384;48.860;9.188;2023-02-01T04:37:43;5.60;99.90
31819;DHT22;18384;48.860;9.188;2023-02-01T04:40:10;5.70;99.90
31819;DHT22;18384;48.860;9.188;2023-02-01T04:42:36;5.70;99.90
31819;DHT22;18384;48.860;9.188;2023-02-01T04:45:03;5.80;99.90
31819;DHT22;18384;48.860;9.188;2023-02-01T04:47:29;5.90;99.90
31819;DHT22;18384;48.860;9.188;2023-02-01T04:49:55;6.00;99.90
31819;DHT22;18384;48.860;9.188;2023-02-01T04:52:22;6.00;99.90
31819;DHT22;18384;48.860;9.188;2023-02-01T04:54:48;6.00;99.90
31819;DHT22;18384;48.860;9.188;2023-02-01T04:57:14;6.00;99.90
31819;DHT22;18384;48.860;9.188;2023-02-01T04:59:40;6.00;99.90
31819;DHT22;18384;48.860;9.188;2023-02-01T05:02:06;6.10;99.90
31819;DHT22;18384;48.860;9.188;2023-02-01T05:04:32;6.00;99.90
31819;DHT22;18384;48.860;9.188;2023-02-01T05:06:58;5.90;99.90
31819;DHT22;18384;48.860;9.188;2023-02-01T05:09:24;5.80;99.90
31819;DHT22;18384;48.860;9.188;2023-02-01T05:11:50;5.80;99.90
31819;DHT22;18384;48.860;9.188;2023-02-01T05:14:35;5.70;99.90
31819;DHT22;18384;48.860;9.188;2023-02-01T05:17:01;5.80;99.90
31819;DHT22;18384;48.860;9.188;2023-02-01T05:19:27;5.70;99.90
31819;DHT22;18384;48.860;9.188;2023-02-01T05:21:53;5.90;99.90
31819;DHT22;18384;48.860;9.188;2023-02-01T05:24:19;5.90;99.90
31819;DHT22;18384;48.860;9.188;2023-02-01T05:26:47;5.90;99.90
31819;DHT22;18384;48.860;9.188;2023-02-01T05:29:15;6.00;99.90
31819;DHT22;18384;48.860;9.188;2023-02-01T05:31:45;6.10;99.90
31819;DHT22;18384;48.860;9.188;2023-02-01T05:34:11;6.10;99.90
31819;DHT22;18384;48.860;9.188;2023-02-01T05:36:37;6.20;99.90
31819;DHT22;18384;48.860;9.188;2023-02-01T05:39:04;6.20;99.90
31819;DHT22;18384;48.860;9.188;2023-02-01T05:41:30;6.30;99.90
31819;DHT22;18384;48.860;9.188;2023-02-01T05:43:56;6.30;99.90
31819;DHT22;18384;48.860;9.188;2023-02-01T05:46:23;6.20;99.90
31819;DHT22;18384;48.860;9.188;2023-02-01T05:48:49;6.20;99.90
31819;DHT22;18384;48.860;9.188;2023-02-01T05:51:15;6.10;99.90
31819;DHT22;18384;48.860;9.188;2023-02-01T05:53:41;6.20;99.90
31819;DHT22;18384;48.860;9.188;2023-02-01T05:56:07;6.10;99.90
31819;DHT22;18384;48.860;9.188;2023-02-01T05:58:33;6.20;99.90
31819;DHT22;18384;48.860;9.188;2023-02-01T06:01:00;6.20;99.90
31819;DHT22;18384;48.860;9.188;2023-02-01T06:03:27;6.20;99.90
31819;DHT22;18384;48.860;9.188;2023-02-01T06:05:53;6.20;99.90
31819;DHT22;18384;48.860;9.188;2023-02-01T06:08:20;6.30;99.90
31819;DHT22;18384;48.860;9.188;2023-02-01T06:10:46;6.30;99.90
31819;DHT22;18384;48.860;9.188;2023-02-01T06:13:12;6.30;99.90
31819;DHT22;18384;48.860;9.188;2023-02-01T06:15:38;6.40;99.90
31819;DHT22;18384;48.860;9.188;2023-02-01T06:18:04;6.30;99.90
31819;DHT22;18384;48.860;9.188;2023-02-01T06:20:30;6.40;99.90
31819;DHT22;18384;48.860;9.188;2023-02-01T06:22:56;6.40;99.90
31819;DHT22;18384;48.860;9.188;2023-02-01T06:25:22;6.50;99.90
31819;DHT22;18384;48.860;9.188;2023-02-01T06:27:49;6.50;99.90
31819;DHT22;18384;48.860;9.188;2023-02-01T06:30:15;6.50;99.90
31819;DHT22;18384;48.860;9.188;2023-02-01T06:32:41;5.30;99.90
31819;DHT22;18384;48.860;9.188;2023-02-01T06:35:08;6.50;99.90
31819;DHT22;18384;48.860;9.188;2023-02-01T06:37:42;6.60;99.90
31819;DHT22;18384;48.860;9.188;2023-02-01T06:40:08;6.50;99.90
31819;DHT22;18384;48.860;9.188;2023-02-01T06:42:35;6.50;99.90
31819;DHT22;18384;48.860;9.188;2023-02-01T06:45:01;6.60;99.90
31819;DHT22;18384;48.860;9.188;2023-02-01T06:47:28;6.60;99.90
31819;DHT22;18384;48.860;9.188;2023-02-01T06:49:54;6.60;99.90
31819;DHT22;18384;48.860;9.188;2023-02-01T06:52:20;6.70;99.90
31819;DHT22;18384;48.860;9.188;2023-02-01T06:54:46;6.60;99.90
31819;DHT22;18384;48.860;9.188;2023-02-01T06:57:12;6.70;99.90
31819;DHT22;18384;48.860;9.188;2023-02-01T06:59:39;6.70;99.90
31819;DHT22;18384;48.860;9.188;2023-02-01T07:02:05;6.80;99.90
31819;DHT22;18384;48.860;9.188;2023-02-01T07:04:34;6.80;99.90
31819;DHT22;18384;48.860;9.188;2023-02-01T07:07:00;6.70;99.90
31819;DHT22;18384;48.860;9.188;2023-02-01T07:09:26;6.70;99.90
31819;DHT22;18384;48.860;9.188;2023-02-01T07:11:52;6.70;99.90
31819;DHT22;18384;48.860;9.188;2023-02-01T07:14:18;6.70;99.90
31819;DHT22;18384;48.860;9.188;2023-02-01T07:16:44;6.70;99.90
31819;DHT22;18384;48.860;9.188;2023-02-01T07:19:10;6.70;99.90
31819;DHT22;18384;48.860;9.188;2023-02-01T07:21:36;6.70;99.90
31819;DHT22;18384;48.860;9.188;2023-02-01T07:24:03;6.80;99.90
31819;DHT22;18384;48.860;9.188;2023-02-01T07:26:29;6.80;99.90
31819;DHT22;18384;48.860;9.188;2023-02-01T07:28:56;6.80;99.90
31819;DHT22;18384;48.860;9.188;2023-02-01T07:31:22;6.80;99.90
31819;DHT22;18384;48.860;9.188;2023-02-01T07:33:48;6.80;99.90
31819;DHT22;18384;48.860;9.188;2023-02-01T07:36:17;6.80;99.90
31819;DHT22;18384;48.860;9.188;2023-02-01T07:38:44;4.80;99.90
31819;DHT22;18384;48.860;9.188;2023-02-01T07:41:12;6.90;99.90
31819;DHT22;18384;48.860;9.188;2023-02-01T07:43:38;6.80;99.90
31819;DHT22;18384;48.860;9.188;2023-02-01T07:46:05;6.80;99.90
31819;DHT22;18384;48.860;9.188;2023-02-01T07:48:32;6.90;99.90
31819;DHT22;18384;48.860;9.188;2023-02-01T07:51:08;6.90;99.90
31819;DHT22;18384;48.860;9.188;2023-02-01T07:53:35;6.80;99.90
31819;DHT22;18384;48.860;9.188;2023-02-01T07:56:02;6.90;99.90
31819;DHT22;18384;48.860;9.188;2023-02-01T07:58:33;6.90;99.90
31819;DHT22;18384;48.860;9.188;2023-02-01T08:01:00;6.90;99.90
31819;DHT22;18384;48.860;9.188;2023-02-01T08:03:44;6.90;99.90
31819;DHT22;18384;48.860;9.188;2023-02-01T08:06:10;6.90;99.90
31819;DHT22;18384;48.860;9.188;2023-02-01T08:08:37;6.90;99.90
31819;DHT22;18384;48.860;9.188;2023-02-01T08:11:04;7.00;99.90
31819;DHT22;18384;48.860;9.188;2023-02-01T08:13:33;7.10;99.90
31819;DHT22;18384;48.860;9.188;2023-02-01T08:16:03;7.10;99.90
31819;DHT22;18384;48.860;9.188;2023-02-01T08:18:31;7.10;99.90
31819;DHT22;18384;48.860;9.188;2023-02-01T08:21:06;7.10;99.90
31819;DHT22;18384;48.860;9.188;2023-02-01T08:23:35;7.20;99.90
31819;DHT22;18384;48.860;9.188;2023-02-01T08:26:06;7.20;99.90
31819;DHT22;18384;48.860;9.188;2023-02-01T08:28:35;7.40;99.90
31819;DHT22;18384;48.860;9.188;2023-02-01T08:31:06;7.40;99.90
31819;DHT22;18384;48.860;9.188;2023-02-01T08:33:34;7.40;99.90
31819;DHT22;18384;48.860;9.188;2023-02-01T08:36:04;7.40;99.90
31819;DHT22;18384;48.860;9.188;2023-02-01T08:38:30;7.50;99.90
31819;DHT22;18384;48.860;9.188;2023-02-01T08:40:57;7.50;99.90
31819;DHT22;18384;48.860;9.188;2023-02-01T08:43:23;7.50;99.90
31819;DHT22;18384;48.860;9.188;2023-02-01T08:45:51;7.60;99.90
31819;DHT22;18384;48.860;9.188;2023-02-01T08:48:19;7.60;99.90
31819;DHT22;18384;48.860;9.188;2023-02-01T08:50:45;7.70;99.90
31819;DHT22;18384;48.860;9.188;2023-02-01T08:53:12;7.60;99.90
31819;DHT22;18384;48.860;9.188;2023-02-01T08:55:39;7.70;99.90
31819;DHT22;18384;48.860;9.188;2023-02-01T08:58:05;7.60;99.90
31819;DHT22;18384;48.860;9.188;2023-02-01T09:00:31;7.60;99.90
31819;DHT22;18384;48.860;9.188;2023-02-01T09:02:58;7.60;99.90
31819;DHT22;18384;48.860;9.188;2023-02-01T09:05:24;7.60;99.90
31819;DHT22;18384;48.860;9.188;2023-02-01T09:07:52;7.50;99.90
31819;DHT22;18384;48.860;9.188;2023-02-01T09:10:19;7.50;99.90
31819;DHT22;18384;48.860;9.188;2023-02-01T09:12:45;7.50;99.90
31819;DHT22;18384;48.860;9.188;2023-02-01T09:15:11;7.50;99.90
31819;DHT22;18384;48.860;9.188;2023-02-01T09:17:37;7.50;99.90
31819;DHT22;18384;48.860;9.188;2023-02-01T09:20:04;7.60;99.90
31819;DHT22;18384;48.860;9.188;2023-02-01T09:22:30;7.60;99.90
31819;DHT22;18384;48.860;9.188;2023-02-01T09:24:57;7.60;99.90
31819;DHT22;18384;48.860;9.188;2023-02-01T09:27:23;7.60;99.90
31819;DHT22;18384;48.860;9.188;2023-02-01T09:29:49;7.60;99.90
31819;DHT22;18384;48.860;9.188;2023-02-01T09:32:22;7.60;99.90
31819;DHT22;18384;48.860;9.188;2023-02-01T09:34:50;7.70;99.90
31819;DHT22;18384;48.860;9.188;2023-02-01T09:37:17;7.70;99.90
31819;DHT22;18384;48.860;9.188;2023-02-01T09:39:43;7.70;99.90
31819;DHT22;18384;48.860;9.188;2023-02-01T09:53:38;7.70;99.90
31819;DHT22;18384;48.860;9.188;2023-02-01T09:58:42;7.60;99.90
31819;DHT22;18384;48.860;9.188;2023-02-01T10:01:22;7.70;99.90
31819;DHT22;18384;48.860;9.188;2023-02-01T10:03:59;7.70;99.70
31819;DHT22;18384;48.860;9.188;2023-02-01T10:06:36;5.60;98.90
31819;DHT22;18384;48.860;9.188;2023-02-01T10:09:50;7.70;99.40
31819;DHT22;18384;48.860;9.188;2023-02-01T10:16:51;7.80;99.50
31819;DHT22;18384;48.860;9.188;2023-02-01T10:21:40;7.80;99.30
31819;DHT22;18384;48.860;9.188;2023-02-01T10:24:42;7.70;99.10
31819;DHT22;18384;48.860;9.188;2023-02-01T10:27:23;7.70;99.10
31819;DHT22;18384;48.860;9.188;2023-02-01T10:30:31;7.70;99.30
31819;DHT22;18384;48.860;9.188;2023-02-01T10:33:18;7.80;99.10
31819;DHT22;18384;48.860;9.188;2023-02-01T10:35:54;8.00;99.00
31819;DHT22;18384;48.860;9.188;2023-02-01T10:38:25;8.10;99.00
31819;DHT22;18384;48.860;9.188;2023-02-01T10:40:57;8.10;99.00
31819;DHT22;18384;48.860;9.188;2023-02-01T10:43:30;8.10;98.90
31819;DHT22;18384;48.860;9.188;2023-02-01T10:45:57;8.20;98.80
31819;DHT22;18384;48.860;9.188;2023-02-01T10:48:23;8.30;98.90
31819;DHT22;18384;48.860;9.188;2023-02-01T10:50:58;8.30;99.00
31819;DHT22;18384;48.860;9.188;2023-02-01T10:53:41;8.40;98.90
31819;DHT22;18384;48.860;9.188;2023-02-01T10:56:27;8.30;98.60
31819;DHT22;18384;48.860;9.188;2023-02-01T10:59:04;8.30;98.70
31819;DHT22;18384;48.860;9.188;2023-02-01T11:01:37;8.30;98.10
31819;DHT22;18384;48.860;9.188;2023-02-01T11:04:11;8.20;98.20
31819;DHT22;18384;48.860;9.188;2023-02-01T11:06:45;8.20;98.20
31819;DHT22;18384;48.860;9.188;2023-02-01T11:09:19;6.50;98.20
31819;DHT22;18384;48.860;9.188;2023-02-01T11:11:58;8.20;98.50
31819;DHT22;18384;48.860;9.188;2023-02-01T11:14:35;8.20;98.30
31819;DHT22;18384;48.860;9.188;2023-02-01T11:18:56;8.20;98.40
31819;DHT22;18384;48.860;9.188;2023-02-01T11:21:24;8.20;98.20
31819;DHT22;18384;48.860;9.188;2023-02-01T11:23:50;8.20;98.60
31819;DHT22;18384;48.860;9.188;2023-02-01T11:26:23;8.30;98.50
31819;DHT22;18384;48.860;9.188;2023-02-01T11:29:11;8.30;98.20
31819;DHT22;18384;48.860;9.188;2023-02-01T11:31:39;8.30;98.30
31819;DHT22;18384;48.860;9.188;2023-02-01T11:34:15;8.30;98.30
31819;DHT22;18384;48.860;9.188;2023-02-01T11:36:47;8.20;98.00
31819;DHT22;18384;48.860;9.188;2023-02-01T11:39:28;8.10;97.80
31819;DHT22;18384;48.860;9.188;2023-02-01T11:42:06;8.10;98.10
31819;DHT22;18384;48.860;9.188;2023-02-01T11:44:43;8.20;97.80
31819;DHT22;18384;48.860;9.188;2023-02-01T11:47:31;8.20;97.60
31819;DHT22;18384;48.860;9.188;2023-02-01T11:50:15;8.30;97.10
31819;DHT22;18384;48.860;9.188;2023-02-01T11:53:08;8.30;96.80
31819;DHT22;18384;48.860;9.188;2023-02-01T11:56:02;8.30;96.80
31819;DHT22;18384;48.860;9.188;2023-02-01T11:59:08;8.40;96.30
31819;DHT22;18384;48.860;9.188;2023-02-01T12:04:45;8.50;96.40
31819;DHT22;18384;48.860;9.188;2023-02-01T12:08:27;8.40;95.50
31819;DHT22;18384;48.860;9.188;2023-02-01T12:11:40;8.30;95.80
31819;DHT22;18384;48.860;9.188;2023-02-01T12:21:28;8.10;95.90
31819;DHT22;18384;48.860;9.188;2023-02-01T12:24:53;7.90;96.30
31819;DHT22;18384;48.860;9.188;2023-02-01T12:33:12;7.90;96.30
31819;DHT22;18384;48.860;9.188;2023-02-01T12:36:13;8.00;96.50
31819;DHT22;18384;48.860;9.188;2023-02-01T12:39:32;8.00;96.90
31819;DHT22;18384;48.860;9.188;2023-02-01T12:47:08;8.00;97.70
31819;DHT22;18384;48.860;9.188;2023-02-01T12:52:44;7.70;99.50
31819;DHT22;18384;48.860;9.188;2023-02-01T12:55:36;7.70;98.90
31819;DHT22;18384;48.860;9.188;2023-02-01T12:58:21;7.80;98.60
31819;DHT22;18384;48.860;9.188;2023-02-01T13:01:15;7.70;98.60
31819;DHT22;18384;48.860;9.188;2023-02-01T13:03:55;7.70;98.50
31819;DHT22;18384;48.860;9.188;2023-02-01T13:08:09;7.80;99.40
31819;DHT22;18384;48.860;9.188;2023-02-01T13:16:42;7.70;99.20
31819;DHT22;18384;48.860;9.188;2023-02-01T13:19:23;7.60;99.50
31819;DHT22;18384;48.860;9.188;2023-02-01T13:22:01;7.60;99.80
31819;DHT22;18384;48.860;9.188;2023-02-01T13:24:39;7.70;99.90
31819;DHT22;18384;48.860;9.188;2023-02-01T13:27:16;7.70;99.80
31819;DHT22;18384;48.860;9.188;2023-02-01T13:30:04;7.80;99.40
31819;DHT22;18384;48.860;9.188;2023-02-01T13:39:48;8.00;98.60
31819;DHT22;18384;48.860;9.188;2023-02-01T13:42:24;8.00;98.50
31819;DHT22;18384;48.860;9.188;2023-02-01T13:45:17;7.90;98.30
31819;DHT22;18384;48.860;9.188;2023-02-01T13:47:48;7.90;98.50
31819;DHT22;18384;48.860;9.188;2023-02-01T13:50:38;8.00;98.20
31819;DHT22;18384;48.860;9.188;2023-02-01T13:53:22;8.00;98.10
31819;DHT22;18384;48.860;9.188;2023-02-01T13:56:15;8.00;97.90
31819;DHT22;18384;48.860;9.188;2023-02-01T13:58:46;8.20;97.90
31819;DHT22;18384;48.860;9.188;2023-02-01T14:06:44;8.00;98.00
31819;DHT22;18384;48.860;9.188;2023-02-01T14:09:14;7.90;98.70
31819;DHT22;18384;48.860;9.188;2023-02-01T14:12:41;7.90;98.60
31819;DHT22;18384;48.860;9.188;2023-02-01T14:15:25;8.00;98.70
31819;DHT22;18384;48.860;9.188;2023-02-01T14:17:52;7.90;98.60
31819;DHT22;18384;48.860;9.188;2023-02-01T14:20:40;7.90;98.80
31819;DHT22;18384;48.860;9.188;2023-02-01T14:23:15;7.90;98.70
31819;DHT22;18384;48.860;9.188;2023-02-01T14:25:45;8.00;98.50
31819;DHT22;18384;48.860;9.188;2023-02-01T14:28:24;8.00;98.40
31819;DHT22;18384;48.860;9.188;2023-02-01T14:30:52;8.00;98.30
31819;DHT22;18384;48.860;9.188;2023-02-01T14:33:22;8.00;98.30
31819;DHT22;18384;48.860;9.188;2023-02-01T14:36:17;8.00;98.60
31819;DHT22;18384;48.860;9.188;2023-02-01T14:38:48;8.00;98.50
31819;DHT22;18384;48.860;9.188;2023-02-01T14:41:34;8.00;98.30
31819;DHT22;18384;48.860;9.188;2023-02-01T14:44:25;8.00;98.30
31819;DHT22;18384;48.860;9.188;2023-02-01T14:47:26;8.00;97.90
31819;DHT22;18384;48.860;9.188;2023-02-01T14:50:03;8.00;97.70
31819;DHT22;18384;48.860;9.188;2023-02-01T14:52:41;7.90;97.80
31819;DHT22;18384;48.860;9.188;2023-02-01T14:55:26;7.80;97.80
31819;DHT22;18384;48.860;9.188;2023-02-01T14:57:58;7.80;97.90
31819;DHT22;18384;48.860;9.188;2023-02-01T15:00:29;7.80;98.10
31819;DHT22;18384;48.860;9.188;2023-02-01T15:06:39;7.70;98.10
31819;DHT22;18384;48.860;9.188;2023-02-01T15:09:20;7.70;98.20
31819;DHT22;18384;48.860;9.188;2023-02-01T15:13:49;7.60;98.10
31819;DHT22;18384;48.860;9.188;2023-02-01T15:16:17;7.60;98.00
31819;DHT22;18384;48.860;9.188;2023-02-01T15:18:43;7.60;97.80
31819;DHT22;18384;48.860;9.188;2023-02-01T15:21:20;7.60;98.10
31819;DHT22;18384;48.860;9.188;2023-02-01T15:23:48;7.60;97.80
31819;DHT22;18384;48.860;9.188;2023-02-01T15:26:30;7.50;97.70
31819;DHT22;18384;48.860;9.188;2023-02-01T15:29:00;7.50;97.70
31819;DHT22;18384;48.860;9.188;2023-02-01T15:31:38;7.50;97.60
31819;DHT22;18384;48.860;9.188;2023-02-01T15:34:07;7.50;97.80
31819;DHT22;18384;48.860;9.188;2023-02-01T15:36:33;7.50;97.70
31819;DHT22;18384;48.860;9.188;2023-02-01T15:41:02;7.50;97.60
31819;DHT22;18384;48.860;9.188;2023-02-01T15:44:20;7.50;97.80
31819;DHT22;18384;48.860;9.188;2023-02-01T15:46:53;7.50;97.70
31819;DHT22;18384;48.860;9.188;2023-02-01T15:49:25;7.60;97.70
31819;DHT22;18384;48.860;9.188;2023-02-01T15:52:00;7.60;97.60
31819;DHT22;18384;48.860;9.188;2023-02-01T15:54:35;7.60;97.70
31819;DHT22;18384;48.860;9.188;2023-02-01T15:57:08;7.60;97.50
31819;DHT22;18384;48.860;9.188;2023-02-01T15:59:42;7.50;97.50
31819;DHT22;18384;48.860;9.188;2023-02-01T16:02:27;7.50;97.50
31819;DHT22;18384;48.860;9.188;2023-02-01T16:05:35;7.60;97.50
31819;DHT22;18384;48.860;9.188;2023-02-01T16:08:21;7.50;97.60
31819;DHT22;18384;48.860;9.188;2023-02-01T16:10:53;7.60;97.50
31819;DHT22;18384;48.860;9.188;2023-02-01T16:13:21;7.60;97.50
31819;DHT22;18384;48.860;9.188;2023-02-01T16:15:47;7.50;97.50
31819;DHT22;18384;48.860;9.188;2023-02-01T16:18:15;7.50;97.70
31819;DHT22;18384;48.860;9.188;2023-02-01T16:20:42;7.50;97.40
31819;DHT22;18384;48.860;9.188;2023-02-01T16:23:10;7.50;97.30
31819;DHT22;18384;48.860;9.188;2023-02-01T16:25:37;7.50;97.10
31819;DHT22;18384;48.860;9.188;2023-02-01T16:28:05;7.50;97.10
31819;DHT22;18384;48.860;9.188;2023-02-01T16:30:32;7.40;97.10
31819;DHT22;18384;48.860;9.188;2023-02-01T16:32:59;7.40;97.40
31819;DHT22;18384;48.860;9.188;2023-02-01T16:35:35;7.40;97.20
31819;DHT22;18384;48.860;9.188;2023-02-01T16:38:12;7.50;97.10
31819;DHT22;18384;48.860;9.188;2023-02-01T16:40:40;7.40;97.00
31819;DHT22;18384;48.860;9.188;2023-02-01T16:43:18;7.40;97.10
31819;DHT22;18384;48.860;9.188;2023-02-01T16:45:47;7.40;97.20
31819;DHT22;18384;48.860;9.188;2023-02-01T16:48:25;7.40;97.20
31819;DHT22;18384;48.860;9.188;2023-02-01T16:51:13;7.40;97.40
31819;DHT22;18384;48.860;9.188;2023-02-01T16:53:41;7.40;97.50
31819;DHT22;18384;48.860;9.188;2023-02-01T16:56:16;7.50;97.30
31819;DHT22;18384;48.860;9.188;2023-02-01T16:58:44;7.50;97.50
31819;DHT22;18384;48.860;9.188;2023-02-01T17:01:12;7.40;97.30
31819;DHT22;18384;48.860;9.188;2023-02-01T17:03:39;7.40;97.40
31819;DHT22;18384;48.860;9.188;2023-02-01T17:06:08;7.30;97.40
31819;DHT22;18384;48.860;9.188;2023-02-01T17:08:38;7.40;97.40
31819;DHT22;18384;48.860;9.188;2023-02-01T17:11:07;7.40;97.30
31819;DHT22;18384;48.860;9.188;2023-02-01T17:13:34;7.40;97.50
31819;DHT22;18384;48.860;9.188;2023-02-01T17:16:44;7.40;97.30
31819;DHT22;18384;48.860;9.188;2023-02-01T17:19:19;7.40;97.50
31819;DHT22;18384;48.860;9.188;2023-02-01T17:21:53;7.40;97.40
31819;DHT22;18384;48.860;9.188;2023-02-01T17:24:31;7.40;97.50
31819;DHT22;18384;48.860;9.188;2023-02-01T17:26:57;7.30;97.40
31819;DHT22;18384;48.860;9.188;2023-02-01T17:29:23;7.40;97.50
31819;DHT22;18384;48.860;9.188;2023-02-01T17:31:53;7.40;97.40
31819;DHT22;18384;48.860;9.188;2023-02-01T17:34:20;7.40;97.60
31819;DHT22;18384;48.860;9.188;2023-02-01T17:36:47;7.40;97.50
31819;DHT22;18384;48.860;9.188;2023-02-01T17:39:14;7.40;97.40
31819;DHT22;18384;48.860;9.188;2023-02-01T17:42:00;7.40;97.60
31819;DHT22;18384;48.860;9.188;2023-02-01T17:44:27;7.40;97.40
31819;DHT22;18384;48.860;9.188;2023-02-01T17:46:53;7.40;97.60
31819;DHT22;18384;48.860;9.188;2023-02-01T17:49:22;7.40;97.70
31819;DHT22;18384;48.860;9.188;2023-02-01T17:51:48;7.40;97.70
31819;DHT22;18384;48.860;9.188;2023-02-01T17:54:16;7.40;97.80
31819;DHT22;18384;48.860;9.188;2023-02-01T17:56:45;7.30;97.80
31819;DHT22;18384;48.860;9.188;2023-02-01T17:59:13;7.40;97.80